Time;durP1;ratioP1;P1;durP2;ratioP2;P2;SDS_P1;SDS_P2;PMS_P1;PMS_P2;Temp;Humidity;BMP_temperature;BMP_pressure;BME280_temperature;BME280_humidity;BME280_pressure;Samples;Min_cycle;Max_cycle;Signal;HPM_P1;HPM_P2
2021/12/07 00:00:58;;;;;;;24.95;13.60;;;;;;;;;;5092565;28;20032;-72
2021/12/07 00:03:24;;;;;;;23.90;13.50;;;;;;;;;;5091180;28;20122;-72
2021/12/07 00:05:50;;;;;;;24.48;13.13;;;;;;;;;;5090741;28;20071;-72
2021/12/07 00:08:17;;;;;;;23.00;13.23;;;;;;;;;;5083149;28;20040;-72
2021/12/07 00:10:44;;;;;;;22.95;12.63;;;;;;;;;;5083729;28;20040;-72
2021/12/07 00:13:11;;;;;;;22.63;12.38;;;;;;;;;;5091213;28;20040;-72
2021/12/07 00:15:38;;;;;;;22.88;13.98;;;;;;;;;;5092259;28;20494;-72
2021/12/07 00:18:05;;;;;;;20.83;11.80;;;;;;;;;;5091650;28;20040;-72
2021/12/07 00:20:31;;;;;;;22.58;13.27;;;;;;;;;;5091558;28;20036;-72
2021/12/07 00:22:59;;;;;;;22.40;13.45;;;;;;;;;;5091866;28;20040;-72
2021/12/07 00:25:26;;;;;;;23.55;13.00;;;;;;;;;;5092090;28;20040;-72
2021/12/07 00:27:52;;;;;;;22.42;12.70;;;;;;;;;;5091684;28;20044;-72
2021/12/07 00:30:18;;;;;;;22.27;12.75;;;;;;;;;;5092164;28;20040;-72
2021/12/07 00:32:52;;;;;;;19.50;11.90;;;;;;;;;;5091399;28;20555;-72
2021/12/07 00:37:45;;;;;;;23.23;13.15;;;;;;;;;;5091614;28;20558;-72
2021/12/07 00:40:12;;;;;;;22.60;12.88;;;;;;;;;;5091689;28;20130;-72
2021/12/07 00:42:38;;;;;;;23.33;13.38;;;;;;;;;;5091721;28;20028;-72
2021/12/07 00:45:05;;;;;;;21.17;12.23;;;;;;;;;;5091453;28;20036;-72
2021/12/07 00:47:31;;;;;;;24.35;13.27;;;;;;;;;;5091784;28;20032;-72
2021/12/07 00:49:57;;;;;;;24.13;13.48;;;;;;;;;;5091413;28;20473;-72
2021/12/07 00:52:23;;;;;;;21.63;12.73;;;;;;;;;;5091567;28;20066;-73
2021/12/07 00:54:49;;;;;;;24.02;13.75;;;;;;;;;;5090956;28;20513;-73
2021/12/07 00:57:15;;;;;;;22.35;13.05;;;;;;;;;;5091575;28;20506;-74
2021/12/07 00:59:41;;;;;;;23.65;13.27;;;;;;;;;;5091086;28;20043;-74
2021/12/07 01:02:07;;;;;;;22.23;12.70;;;;;;;;;;5091355;28;20040;-74
2021/12/07 01:04:33;;;;;;;22.17;13.07;;;;;;;;;;5090847;28;20036;-74
2021/12/07 01:07:04;;;;;;;22.17;13.40;;;;;;;;;;5091228;28;20507;-74
2021/12/07 01:24:39;;;;;;;23.42;13.98;;;;;;;;;;5091377;28;20048;-74
2021/12/07 01:26:10;;;;;;;22.48;13.32;;;;;;;;;;5091267;28;20045;-73
2021/12/07 01:28:41;;;;;;;24.58;13.07;;;;;;;;;;5091047;28;20032;-73
2021/12/07 01:31:30;;;;;;;24.08;13.63;;;;;;;;;;5090989;28;20067;-73
2021/12/07 01:34:16;;;;;;;23.77;13.57;;;;;;;;;;5081072;28;20044;-73
2021/12/07 01:37:10;;;;;;;23.75;12.65;;;;;;;;;;5090873;28;20139;-73
2021/12/07 01:45:48;;;;;;;22.55;13.00;;;;;;;;;;5047747;28;20560;-73
2021/12/07 01:49:42;;;;;;;23.83;13.57;;;;;;;;;;5079020;28;20397;-73
2021/12/07 02:01:33;;;;;;;19.98;13.63;;;;;;;;;;5070841;28;20410;-73
2021/12/07 02:03:59;;;;;;;23.67;13.13;;;;;;;;;;5081636;28;20089;-73
2021/12/07 02:06:25;;;;;;;20.63;12.85;;;;;;;;;;5091167;28;20051;-73
2021/12/07 02:08:51;;;;;;;23.67;13.18;;;;;;;;;;5089353;28;20032;-73
2021/12/07 02:11:17;;;;;;;20.85;12.40;;;;;;;;;;5090696;28;20111;-73
2021/12/07 02:16:11;;;;;;;19.55;12.93;;;;;;;;;;5090353;28;20054;-73
2021/12/07 02:18:37;;;;;;;20.83;12.50;;;;;;;;;;5090277;28;20150;-74
2021/12/07 02:21:19;;;;;;;19.52;12.55;;;;;;;;;;5090950;28;20079;-74
2021/12/07 02:23:46;;;;;;;20.65;12.32;;;;;;;;;;5090357;28;20118;-74
2021/12/07 02:26:12;;;;;;;21.23;12.98;;;;;;;;;;5093972;28;20055;-74
2021/12/07 02:28:39;;;;;;;20.38;12.32;;;;;;;;;;5075582;28;20052;-74
2021/12/07 02:31:06;;;;;;;20.30;13.13;;;;;;;;;;5094113;28;20048;-73
2021/12/07 02:33:33;;;;;;;18.73;12.35;;;;;;;;;;5093829;28;20043;-74
2021/12/07 02:35:59;;;;;;;19.77;12.77;;;;;;;;;;5093949;28;20044;-73
2021/12/07 02:38:25;;;;;;;20.83;13.07;;;;;;;;;;5093884;28;20428;-74
2021/12/07 02:40:51;;;;;;;19.55;12.60;;;;;;;;;;5093951;28;20024;-74
2021/12/07 02:43:17;;;;;;;21.02;12.20;;;;;;;;;;5094413;28;20028;-74
2021/12/07 02:45:44;;;;;;;20.40;13.02;;;;;;;;;;5088877;28;20402;-74
2021/12/07 02:48:10;;;;;;;19.42;11.77;;;;;;;;;;5093729;28;20312;-75
2021/12/07 02:50:36;;;;;;;18.45;11.75;;;;;;;;;;5093751;28;20574;-74
2021/12/07 02:53:02;;;;;;;20.88;12.55;;;;;;;;;;5093586;28;20118;-74
2021/12/07 02:55:30;;;;;;;22.42;12.90;;;;;;;;;;5093730;28;20048;-74
2021/12/07 02:57:56;;;;;;;23.05;12.93;;;;;;;;;;5092966;28;20516;-74
2021/12/07 03:00:27;;;;;;;20.48;12.02;;;;;;;;;;5091647;28;20051;-74
2021/12/07 03:03:02;;;;;;;19.42;11.90;;;;;;;;;;5091179;28;20079;-74
2021/12/07 03:27:14;;;;;;;22.35;13.20;;;;;;;;;;5073228;28;20044;-74
2021/12/07 03:29:40;;;;;;;25.38;14.48;;;;;;;;;;5087722;28;20040;-74
2021/12/07 03:32:06;;;;;;;25.38;14.30;;;;;;;;;;5092678;28;20451;-75
2021/12/07 03:34:32;;;;;;;25.92;14.65;;;;;;;;;;5092648;28;20036;-74
2021/12/07 03:36:58;;;;;;;25.95;14.52;;;;;;;;;;5092693;28;20409;-74
2021/12/07 03:39:24;;;;;;;24.05;15.38;;;;;;;;;;5092356;28;20549;-74
2021/12/07 03:41:51;;;;;;;24.55;14.38;;;;;;;;;;5093075;28;20111;-74
2021/12/07 03:44:17;;;;;;;27.52;14.77;;;;;;;;;;5092324;28;20036;-74
2021/12/07 03:46:43;;;;;;;26.90;15.63;;;;;;;;;;5092908;28;20040;-75
2021/12/07 03:49:10;;;;;;;24.98;14.45;;;;;;;;;;5092400;28;20051;-75
2021/12/07 03:51:36;;;;;;;29.33;15.90;;;;;;;;;;5092864;28;20039;-74
2021/12/07 03:54:03;;;;;;;26.27;15.52;;;;;;;;;;5092536;28;20040;-74
2021/12/07 03:56:30;;;;;;;26.38;15.32;;;;;;;;;;5090905;28;20044;-74
2021/12/07 03:58:56;;;;;;;23.15;14.23;;;;;;;;;;5092581;28;20032;-75
2021/12/07 04:01:23;;;;;;;27.55;15.38;;;;;;;;;;5091794;28;20455;-75
2021/12/07 04:03:52;;;;;;;24.77;14.32;;;;;;;;;;5092360;28;20044;-74
2021/12/07 04:06:18;;;;;;;24.88;14.88;;;;;;;;;;5092762;28;20051;-74
2021/12/07 04:08:45;;;;;;;27.80;15.18;;;;;;;;;;5091799;28;20486;-74
2021/12/07 04:11:11;;;;;;;27.60;15.15;;;;;;;;;;5092324;28;20497;-75
2021/12/07 04:13:37;;;;;;;25.02;15.00;;;;;;;;;;5092147;28;20426;-74
2021/12/07 04:16:07;;;;;;;25.80;14.45;;;;;;;;;;5091774;28;20074;-75
2021/12/07 04:18:33;;;;;;;24.25;14.65;;;;;;;;;;5092173;28;20028;-75
2021/12/07 04:21:01;;;;;;;25.58;14.45;;;;;;;;;;5092282;28;20039;-75
2021/12/07 04:23:28;;;;;;;27.38;15.10;;;;;;;;;;5091236;28;20044;-75
2021/12/07 04:25:54;;;;;;;25.00;14.88;;;;;;;;;;5091389;28;20048;-75
2021/12/07 04:28:20;;;;;;;26.38;15.27;;;;;;;;;;5091770;28;20035;-75
2021/12/07 04:30:46;;;;;;;26.67;14.52;;;;;;;;;;5092016;28;20032;-75
2021/12/07 04:33:13;;;;;;;25.63;14.65;;;;;;;;;;5091728;28;20055;-75
2021/12/07 04:35:40;;;;;;;24.10;14.25;;;;;;;;;;5091793;28;20063;-75
2021/12/07 04:38:06;;;;;;;25.27;14.63;;;;;;;;;;5091520;28;20040;-75
2021/12/07 04:40:32;;;;;;;23.48;13.90;;;;;;;;;;5091720;28;20093;-75
2021/12/07 04:42:59;;;;;;;24.65;14.15;;;;;;;;;;5091427;28;20040;-75
2021/12/07 04:45:49;;;;;;;24.92;14.30;;;;;;;;;;5091746;28;20489;-75
2021/12/07 04:59:01;;;;;;;26.35;13.05;;;;;;;;;;5087928;28;20036;-74
2021/12/07 05:01:27;;;;;;;24.10;13.10;;;;;;;;;;5081062;28;20123;-74
2021/12/07 05:03:56;;;;;;;22.33;12.32;;;;;;;;;;5080298;28;20032;-74
2021/12/07 05:06:27;;;;;;;20.05;12.20;;;;;;;;;;5088770;28;20448;-74
2021/12/07 05:09:20;;;;;;;23.13;12.83;;;;;;;;;;5090042;28;20044;-75
2021/12/07 05:11:51;;;;;;;25.85;12.77;;;;;;;;;;5089202;28;20290;-73
2021/12/07 05:14:20;;;;;;;22.58;12.05;;;;;;;;;;5101626;22;20044;-65
2021/12/07 05:17:16;;;;;;;21.80;11.98;;;;;;;;;;5085617;28;20076;-65
2021/12/07 05:38:57;;;;;;;18.63;11.13;;;;;;;;;;5087214;28;20118;-65
2021/12/07 05:41:26;;;;;;;20.80;11.38;;;;;;;;;;5088517;28;20115;-65
2021/12/07 05:43:52;;;;;;;24.02;12.30;;;;;;;;;;5070042;28;20082;-65
2021/12/07 05:46:18;;;;;;;21.60;11.23;;;;;;;;;;5066643;28;20042;-65
2021/12/07 05:48:44;;;;;;;22.15;11.65;;;;;;;;;;5082216;28;20050;-65
2021/12/07 05:51:10;;;;;;;22.67;11.82;;;;;;;;;;5073788;28;20111;-65
2021/12/07 05:53:36;;;;;;;18.25;10.98;;;;;;;;;;5080611;28;20102;-65
2021/12/07 05:56:03;;;;;;;19.42;10.55;;;;;;;;;;5085532;28;20123;-65
2021/12/07 05:58:30;;;;;;;20.90;10.68;;;;;;;;;;5089748;28;20042;-65
2021/12/07 06:00:57;;;;;;;21.50;11.13;;;;;;;;;;5073983;28;20123;-65
2021/12/07 06:03:24;;;;;;;19.58;10.25;;;;;;;;;;5091060;28;20040;-65
2021/12/07 06:05:50;;;;;;;19.88;11.25;;;;;;;;;;5092742;28;20051;-65
2021/12/07 06:08:16;;;;;;;20.88;11.45;;;;;;;;;;5075839;28;20383;-65
2021/12/07 06:10:42;;;;;;;20.65;10.65;;;;;;;;;;5078182;28;20066;-65
2021/12/07 06:13:08;;;;;;;20.08;11.27;;;;;;;;;;5068845;28;20048;-65
2021/12/07 06:15:36;;;;;;;18.80;10.52;;;;;;;;;;5077181;28;20047;-65
2021/12/07 06:18:03;;;;;;;22.23;10.90;;;;;;;;;;5089074;28;20543;-65
2021/12/07 06:20:29;;;;;;;21.00;10.52;;;;;;;;;;5092734;28;20036;-65
2021/12/07 06:22:55;;;;;;;24.70;11.30;;;;;;;;;;5086083;28;20037;-65
2021/12/07 06:25:21;;;;;;;19.70;10.65;;;;;;;;;;5082425;28;20039;-65
2021/12/07 06:27:47;;;;;;;18.92;11.43;;;;;;;;;;5080801;28;20044;-65
2021/12/07 06:30:14;;;;;;;22.63;11.13;;;;;;;;;;5088180;28;20047;-65
2021/12/07 06:32:40;;;;;;;21.75;11.25;;;;;;;;;;5081003;28;20044;-65
2021/12/07 06:35:07;;;;;;;22.00;11.27;;;;;;;;;;5093160;28;20039;-65
2021/12/07 06:37:33;;;;;;;20.52;11.32;;;;;;;;;;5080407;28;20072;-65
2021/12/07 06:39:59;;;;;;;21.13;11.05;;;;;;;;;;5087040;28;20504;-65
2021/12/07 06:42:25;;;;;;;21.25;10.65;;;;;;;;;;5080730;28;20033;-65
2021/12/07 06:44:51;;;;;;;22.35;11.27;;;;;;;;;;5087200;28;20036;-65
2021/12/07 06:47:17;;;;;;;18.65;10.27;;;;;;;;;;5086546;28;20039;-65
2021/12/07 06:49:43;;;;;;;22.77;11.05;;;;;;;;;;5070972;28;20039;-65
2021/12/07 06:52:09;;;;;;;22.35;11.23;;;;;;;;;;5077263;28;20467;-65
2021/12/07 06:54:36;;;;;;;20.20;11.13;;;;;;;;;;5086620;28;20040;-65
2021/12/07 06:57:02;;;;;;;23.65;11.60;;;;;;;;;;5066549;28;20043;-64
2021/12/07 06:59:28;;;;;;;23.45;11.75;;;;;;;;;;5083199;28;20043;-65
2021/12/07 07:01:54;;;;;;;21.35;11.23;;;;;;;;;;5078232;28;20044;-65
2021/12/07 07:04:20;;;;;;;20.60;11.07;;;;;;;;;;5071938;28;20036;-66
2021/12/07 07:06:46;;;;;;;23.75;11.00;;;;;;;;;;5088663;28;20043;-65
2021/12/07 07:09:13;;;;;;;68.97;14.55;;;;;;;;;;5088719;28;20047;-65
2021/12/07 07:11:39;;;;;;;21.95;10.32;;;;;;;;;;5063633;28;20059;-65
2021/12/07 07:14:05;;;;;;;19.25;10.98;;;;;;;;;;5082219;28;20036;-65
2021/12/07 07:16:31;;;;;;;25.60;11.98;;;;;;;;;;5085286;28;20394;-65
2021/12/07 07:18:57;;;;;;;21.05;11.40;;;;;;;;;;5083578;28;20084;-65
2021/12/07 07:21:24;;;;;;;21.85;10.50;;;;;;;;;;5092234;28;20117;-65
2021/12/07 07:23:50;;;;;;;24.17;11.27;;;;;;;;;;5069598;28;20039;-64
2021/12/07 07:26:16;;;;;;;19.90;10.15;;;;;;;;;;5089497;28;20041;-65
2021/12/07 07:28:43;;;;;;;21.92;11.13;;;;;;;;;;5083752;28;20173;-64
2021/12/07 07:31:09;;;;;;;22.83;11.18;;;;;;;;;;5085034;28;20423;-65
2021/12/07 07:33:35;;;;;;;21.15;10.40;;;;;;;;;;5087764;28;20623;-65
2021/12/07 07:36:02;;;;;;;23.33;11.63;;;;;;;;;;5082447;28;20043;-65
2021/12/07 07:38:28;;;;;;;22.52;10.02;;;;;;;;;;5063811;28;20072;-65
2021/12/07 07:40:54;;;;;;;22.38;10.82;;;;;;;;;;5077888;28;20484;-66
2021/12/07 07:43:20;;;;;;;21.73;10.55;;;;;;;;;;5087949;28;20113;-65
2021/12/07 07:45:50;;;;;;;21.13;10.60;;;;;;;;;;5087202;28;20081;-64
2021/12/07 07:48:16;;;;;;;24.40;9.95;;;;;;;;;;5074096;28;20041;-65
2021/12/07 07:50:43;;;;;;;22.63;10.15;;;;;;;;;;5080264;28;20035;-65
2021/12/07 07:53:09;;;;;;;17.90;9.48;;;;;;;;;;5075361;28;20040;-65
2021/12/07 07:55:37;;;;;;;21.05;10.20;;;;;;;;;;5075028;28;20041;-64
2021/12/07 07:58:04;;;;;;;21.55;9.88;;;;;;;;;;5082394;28;20075;-65
2021/12/07 08:00:30;;;;;;;24.67;10.85;;;;;;;;;;5089061;28;20082;-64
2021/12/07 08:02:56;;;;;;;21.35;9.82;;;;;;;;;;5092180;28;20089;-64
2021/12/07 08:05:22;;;;;;;20.75;10.25;;;;;;;;;;5081928;28;20336;-65
2021/12/07 08:07:48;;;;;;;19.10;9.95;;;;;;;;;;5087149;28;20489;-64
2021/12/07 08:10:21;;;;;;;21.83;9.63;;;;;;;;;;5087577;28;20078;-65
2021/12/07 08:12:47;;;;;;;22.02;9.57;;;;;;;;;;5080976;28;20047;-66
2021/12/07 08:15:13;;;;;;;22.60;10.35;;;;;;;;;;5073101;28;20050;-65
2021/12/07 08:17:39;;;;;;;19.13;9.63;;;;;;;;;;5068661;28;20048;-65
2021/12/07 08:20:05;;;;;;;24.55;11.75;;;;;;;;;;5068976;28;20492;-64
2021/12/07 08:22:31;;;;;;;25.55;11.35;;;;;;;;;;5091559;28;20093;-64
2021/12/07 08:24:58;;;;;;;21.15;10.00;;;;;;;;;;5080234;28;20036;-64
2021/12/07 08:27:25;;;;;;;21.77;10.52;;;;;;;;;;5072163;28;20087;-65
2021/12/07 08:29:51;;;;;;;19.50;10.15;;;;;;;;;;5072302;28;20167;-65
2021/12/07 08:32:17;;;;;;;22.40;8.98;;;;;;;;;;5071891;28;20068;-65
2021/12/07 08:34:43;;;;;;;22.33;10.20;;;;;;;;;;5072096;28;20047;-65
2021/12/07 08:37:09;;;;;;;20.80;10.20;;;;;;;;;;5071756;28;20395;-64
2021/12/07 08:39:35;;;;;;;20.48;9.23;;;;;;;;;;5073312;28;20064;-65
2021/12/07 08:42:02;;;;;;;19.85;10.02;;;;;;;;;;5084020;28;20043;-64
2021/12/07 08:44:28;;;;;;;23.73;9.48;;;;;;;;;;5081095;28;20058;-64
2021/12/07 08:46:54;;;;;;;23.73;9.60;;;;;;;;;;5071637;28;20563;-65
2021/12/07 08:49:21;;;;;;;17.48;9.40;;;;;;;;;;5071816;28;20051;-65
2021/12/07 08:51:47;;;;;;;17.55;9.13;;;;;;;;;;5071680;28;20111;-64
2021/12/07 08:59:47;;;;;;;26.85;9.25;;;;;;;;;;5071917;28;20045;-64
2021/12/07 09:02:15;;;;;;;23.95;10.05;;;;;;;;;;5073308;28;20032;-64
2021/12/07 09:04:41;;;;;;;22.48;9.60;;;;;;;;;;5072563;28;20086;-65
2021/12/07 09:07:07;;;;;;;20.83;9.65;;;;;;;;;;5071360;28;20053;-64
2021/12/07 09:09:33;;;;;;;23.42;9.32;;;;;;;;;;5071564;28;20045;-65
2021/12/07 09:11:59;;;;;;;27.45;10.70;;;;;;;;;;5071594;28;20070;-65
2021/12/07 09:14:27;;;;;;;18.33;9.13;;;;;;;;;;5071131;28;20505;-65
2021/12/07 09:16:53;;;;;;;22.88;9.68;;;;;;;;;;5071995;28;20040;-65
2021/12/07 09:19:20;;;;;;;21.60;9.98;;;;;;;;;;5071477;28;20452;-65
2021/12/07 09:21:46;;;;;;;26.33;10.23;;;;;;;;;;5077028;28;20490;-65
2021/12/07 09:24:12;;;;;;;28.92;10.20;;;;;;;;;;5070985;28;20033;-64
2021/12/07 09:26:38;;;;;;;21.92;9.75;;;;;;;;;;5071596;28;20037;-65
2021/12/07 09:29:04;;;;;;;24.25;9.77;;;;;;;;;;5071365;28;20111;-65
2021/12/07 09:31:30;;;;;;;23.67;9.90;;;;;;;;;;5053245;28;20482;-65
2021/12/07 09:33:56;;;;;;;31.05;10.35;;;;;;;;;;5077082;28;20034;-65
2021/12/07 09:36:24;;;;;;;28.13;11.00;;;;;;;;;;5094389;28;20123;-65
2021/12/07 09:38:50;;;;;;;28.13;9.93;;;;;;;;;;5095286;28;20039;-65
2021/12/07 09:41:18;;;;;;;20.65;9.20;;;;;;;;;;5095216;28;20135;-65
2021/12/07 09:43:45;;;;;;;26.08;9.40;;;;;;;;;;5095686;28;20040;-65
2021/12/07 09:46:12;;;;;;;21.50;8.55;;;;;;;;;;5095433;28;20075;-65
2021/12/07 09:48:38;;;;;;;24.98;9.30;;;;;;;;;;5076666;28;20514;-65
2021/12/07 09:51:05;;;;;;;22.98;10.00;;;;;;;;;;5073299;28;20301;-65
2021/12/07 09:53:31;;;;;;;23.48;9.50;;;;;;;;;;5090853;28;20478;-65
2021/12/07 09:55:57;;;;;;;21.50;9.35;;;;;;;;;;5055223;28;20565;-65
2021/12/07 09:58:24;;;;;;;22.75;9.25;;;;;;;;;;5068983;28;20414;-65
2021/12/07 10:00:50;;;;;;;23.00;9.20;;;;;;;;;;5090460;28;20076;-66
2021/12/07 10:03:20;;;;;;;20.30;8.50;;;;;;;;;;5082929;28;20041;-65
2021/12/07 10:05:46;;;;;;;23.48;8.45;;;;;;;;;;5062961;28;20585;-66
2021/12/07 10:08:12;;;;;;;21.75;9.02;;;;;;;;;;5059195;28;20043;-66
2021/12/07 10:10:43;;;;;;;22.33;8.75;;;;;;;;;;5086326;28;20085;-66
2021/12/07 10:13:10;;;;;;;18.90;8.38;;;;;;;;;;5094085;28;20382;-65
2021/12/07 10:15:36;;;;;;;23.17;7.95;;;;;;;;;;5082642;28;20050;-67
2021/12/07 10:18:02;;;;;;;18.35;8.07;;;;;;;;;;5087138;28;20035;-66
2021/12/07 10:20:39;;;;;;;18.98;7.63;;;;;;;;;;5083416;28;20048;-66
2021/12/07 10:23:18;;;;;;;16.52;7.45;;;;;;;;;;5090831;28;20320;-67
2021/12/07 10:25:46;;;;;;;17.35;7.22;;;;;;;;;;5094012;28;20036;-67
2021/12/07 10:28:31;;;;;;;21.73;7.93;;;;;;;;;;5089407;28;20036;-66
2021/12/07 10:31:17;;;;;;;18.60;7.20;;;;;;;;;;5082841;28;20036;-65
2021/12/07 10:33:48;;;;;;;18.73;6.88;;;;;;;;;;5064527;28;20051;-66
2021/12/07 10:36:22;;;;;;;15.98;6.60;;;;;;;;;;5088960;28;20040;-67
2021/12/07 10:38:49;;;;;;;21.77;6.75;;;;;;;;;;5089144;28;20032;-67
2021/12/07 10:41:21;;;;;;;18.33;6.47;;;;;;;;;;5083000;28;20052;-67
2021/12/07 10:44:00;;;;;;;16.27;6.30;;;;;;;;;;5093982;28;20389;-67
2021/12/07 10:46:29;;;;;;;18.73;7.13;;;;;;;;;;5093484;28;20051;-67
2021/12/07 10:49:08;;;;;;;16.63;7.28;;;;;;;;;;5074109;28;20052;-67
2021/12/07 10:51:34;;;;;;;22.75;7.43;;;;;;;;;;5082175;28;20366;-66
2021/12/07 10:54:00;;;;;;;18.30;7.13;;;;;;;;;;5065447;28;20043;-66
2021/12/07 10:56:31;;;;;;;19.02;6.85;;;;;;;;;;5073814;28;20132;-67
2021/12/07 10:59:00;;;;;;;16.45;6.60;;;;;;;;;;5086882;28;20092;-66
2021/12/07 11:01:34;;;;;;;17.20;7.00;;;;;;;;;;5086007;28;20047;-66
2021/12/07 11:04:19;;;;;;;24.65;8.07;;;;;;;;;;5085149;28;20040;-66
2021/12/07 11:07:06;;;;;;;19.55;7.65;;;;;;;;;;5073773;28;20048;-66
2021/12/07 11:09:47;;;;;;;18.38;7.60;;;;;;;;;;5070931;28;20489;-67
2021/12/07 11:12:14;;;;;;;18.83;7.68;;;;;;;;;;5088455;28;20517;-67
2021/12/07 11:14:41;;;;;;;18.80;7.70;;;;;;;;;;5079175;22;20048;-72
2021/12/07 11:17:08;;;;;;;21.67;7.57;;;;;;;;;;5093488;28;20051;-72
2021/12/07 11:19:35;;;;;;;17.20;7.65;;;;;;;;;;5093506;28;20040;-72
2021/12/07 11:22:01;;;;;;;20.05;7.15;;;;;;;;;;5093289;28;20093;-72
2021/12/07 11:24:39;;;;;;;19.50;6.60;;;;;;;;;;5091832;28;20036;-72
2021/12/07 11:30:02;;;;;;;21.13;6.43;;;;;;;;;;5068234;28;20048;-72
2021/12/07 11:32:28;;;;;;;17.02;7.10;;;;;;;;;;5068254;28;20049;-72
2021/12/07 11:34:54;;;;;;;18.15;7.05;;;;;;;;;;5071736;28;20041;-72
2021/12/07 11:37:24;;;;;;;21.42;6.78;;;;;;;;;;5072225;28;20036;-72
2021/12/07 11:39:53;;;;;;;15.98;6.60;;;;;;;;;;5072799;28;20054;-72
2021/12/07 11:42:22;;;;;;;19.60;7.35;;;;;;;;;;5067345;28;20039;-74
2021/12/07 11:44:54;;;;;;;19.23;7.35;;;;;;;;;;5060663;28;20043;-73
2021/12/07 11:47:29;;;;;;;15.93;6.30;;;;;;;;;;5062399;28;20051;-73
2021/12/07 11:49:56;;;;;;;21.17;6.97;;;;;;;;;;5063571;28;20044;-72
2021/12/07 11:52:23;;;;;;;16.02;6.72;;;;;;;;;;5071345;28;20040;-74
2021/12/07 11:54:58;;;;;;;17.23;6.25;;;;;;;;;;5072120;28;20082;-71
2021/12/07 11:57:40;;;;;;;15.60;6.10;;;;;;;;;;5051437;28;20425;-71
2021/12/07 12:02:58;;;;;;;16.80;6.13;;;;;;;;;;5006576;28;20036;-72
2021/12/07 12:05:24;;;;;;;17.67;6.35;;;;;;;;;;5046186;28;20048;-73
2021/12/07 12:07:50;;;;;;;17.88;6.82;;;;;;;;;;5049533;28;20036;-72
2021/12/07 12:10:18;;;;;;;17.08;6.82;;;;;;;;;;5071984;28;20037;-72
2021/12/07 12:13:05;;;;;;;14.52;6.32;;;;;;;;;;5076478;28;20040;-71
2021/12/07 12:15:50;;;;;;;14.82;5.38;;;;;;;;;;5070610;28;20146;-71
2021/12/07 12:18:35;;;;;;;11.77;5.45;;;;;;;;;;5071224;28;20119;-71
2021/12/07 12:21:07;;;;;;;17.63;6.78;;;;;;;;;;5071412;28;20093;-71
2021/12/07 12:23:46;;;;;;;17.67;6.57;;;;;;;;;;5069643;28;20054;-71
2021/12/07 12:26:12;;;;;;;12.30;5.90;;;;;;;;;;5070848;28;20123;-71
2021/12/07 12:28:47;;;;;;;14.35;5.88;;;;;;;;;;5063893;28;20094;-71
2021/12/07 12:31:13;;;;;;;17.88;5.80;;;;;;;;;;5070952;28;20363;-71
2021/12/07 12:33:45;;;;;;;14.05;5.88;;;;;;;;;;5070887;28;20401;-71
2021/12/07 12:36:11;;;;;;;14.13;5.85;;;;;;;;;;5082623;28;20124;-71
2021/12/07 12:38:43;;;;;;;13.57;5.88;;;;;;;;;;5081373;28;20036;-71
2021/12/07 12:41:10;;;;;;;15.52;5.70;;;;;;;;;;5071527;28;20033;-71
2021/12/07 12:43:52;;;;;;;14.18;5.70;;;;;;;;;;5071283;28;20036;-71
2021/12/07 12:46:20;;;;;;;15.75;5.60;;;;;;;;;;5070085;28;20072;-72
2021/12/07 12:48:50;;;;;;;14.80;6.00;;;;;;;;;;5070541;28;20040;-71
2021/12/07 12:51:17;;;;;;;14.35;6.05;;;;;;;;;;5070800;28;20042;-71
2021/12/07 12:53:44;;;;;;;14.85;6.50;;;;;;;;;;5066141;28;20051;-71
2021/12/07 12:56:11;;;;;;;20.55;5.75;;;;;;;;;;5067176;28;20512;-71
2021/12/07 12:58:41;;;;;;;13.27;5.72;;;;;;;;;;5071207;28;20037;-71
2021/12/07 13:01:26;;;;;;;14.25;6.18;;;;;;;;;;5064880;28;20044;-71
2021/12/07 13:03:52;;;;;;;19.15;6.30;;;;;;;;;;5071494;28;20448;-71
2021/12/07 13:06:33;;;;;;;16.77;7.10;;;;;;;;;;5053351;28;20041;-71
2021/12/07 13:09:03;;;;;;;18.30;7.03;;;;;;;;;;5070171;28;20044;-71
2021/12/07 13:11:42;;;;;;;16.17;7.88;;;;;;;;;;5068164;28;20045;-71
2021/12/07 13:14:12;;;;;;;15.48;6.95;;;;;;;;;;5069127;28;20036;-71
2021/12/07 13:16:39;;;;;;;15.02;7.00;;;;;;;;;;5071014;28;20090;-71
2021/12/07 13:19:09;;;;;;;17.50;7.72;;;;;;;;;;5070826;28;20044;-71
2021/12/07 13:21:39;;;;;;;20.90;7.47;;;;;;;;;;5070256;28;20045;-71
2021/12/07 13:24:10;;;;;;;15.93;7.35;;;;;;;;;;5068162;28;20048;-71
2021/12/07 13:26:38;;;;;;;13.32;7.22;;;;;;;;;;5070742;28;20064;-71
2021/12/07 13:29:05;;;;;;;18.10;7.82;;;;;;;;;;5065159;28;20048;-71
2021/12/07 13:31:39;;;;;;;17.90;7.97;;;;;;;;;;5063518;28;20550;-71
2021/12/07 13:34:05;;;;;;;23.08;8.38;;;;;;;;;;5070619;28;20093;-71
2021/12/07 13:36:34;;;;;;;17.63;8.25;;;;;;;;;;5070912;28;20181;-71
2021/12/07 13:39:06;;;;;;;21.13;8.73;;;;;;;;;;5071157;28;20079;-71
2021/12/07 13:41:32;;;;;;;21.83;8.85;;;;;;;;;;5065218;28;20379;-71
2021/12/07 13:43:58;;;;;;;20.50;8.45;;;;;;;;;;5070285;28;20178;-71
2021/12/07 13:46:25;;;;;;;20.50;9.23;;;;;;;;;;5066934;28;20041;-71
2021/12/07 13:48:54;;;;;;;20.45;9.73;;;;;;;;;;5063206;28;20161;-71
2021/12/07 13:51:21;;;;;;;18.25;9.52;;;;;;;;;;5070815;28;20405;-71
2021/12/07 13:53:48;;;;;;;23.13;9.15;;;;;;;;;;5070291;28;20134;-71
2021/12/07 13:56:14;;;;;;;25.95;9.27;;;;;;;;;;5069629;28;20494;-72
2021/12/07 13:58:55;;;;;;;19.60;9.60;;;;;;;;;;5069307;28;20025;-71
2021/12/07 14:01:21;;;;;;;18.45;9.18;;;;;;;;;;5068493;28;20189;-71
2021/12/07 14:03:47;;;;;;;23.08;10.63;;;;;;;;;;5069505;28;20039;-71
2021/12/07 14:06:13;;;;;;;19.88;9.93;;;;;;;;;;5068940;28;20047;-71
2021/12/07 14:08:39;;;;;;;22.67;8.85;;;;;;;;;;5052997;28;20115;-71
2021/12/07 14:11:05;;;;;;;27.77;10.77;;;;;;;;;;5069494;28;20046;-71
2021/12/07 14:13:31;;;;;;;25.05;10.40;;;;;;;;;;5070707;28;20041;-70
2021/12/07 14:15:57;;;;;;;19.25;10.07;;;;;;;;;;5069916;28;20036;-71
2021/12/07 14:18:27;;;;;;;22.77;10.00;;;;;;;;;;5065675;28;20550;-70
2021/12/07 14:20:57;;;;;;;26.35;10.52;;;;;;;;;;5069200;28;20036;-71
2021/12/07 14:23:24;;;;;;;23.33;10.77;;;;;;;;;;5074606;28;20387;-71
2021/12/07 14:25:55;;;;;;;20.85;10.27;;;;;;;;;;5074138;28;20040;-71
2021/12/07 14:28:33;;;;;;;31.02;12.00;;;;;;;;;;5074629;28;20044;-71
2021/12/07 14:31:16;;;;;;;23.35;10.60;;;;;;;;;;5073386;28;20043;-71
2021/12/07 14:33:47;;;;;;;22.17;10.32;;;;;;;;;;5060988;28;20048;-72
2021/12/07 14:36:14;;;;;;;22.83;10.30;;;;;;;;;;5070787;28;20068;-70
2021/12/07 14:38:40;;;;;;;22.92;10.23;;;;;;;;;;5065606;28;20036;-70
2021/12/07 14:41:08;;;;;;;19.77;9.57;;;;;;;;;;5071123;28;20382;-71
2021/12/07 14:43:34;;;;;;;28.45;10.10;;;;;;;;;;5068747;28;20037;-70
2021/12/07 14:46:01;;;;;;;22.73;10.25;;;;;;;;;;5052903;28;20036;-72
2021/12/07 14:48:27;;;;;;;24.08;9.85;;;;;;;;;;5070967;28;20032;-70
2021/12/07 14:50:53;;;;;;;19.00;9.20;;;;;;;;;;5070267;28;20036;-70
2021/12/07 14:53:36;;;;;;;20.75;9.18;;;;;;;;;;5072977;28;20089;-70
2021/12/07 14:56:03;;;;;;;27.25;9.85;;;;;;;;;;5072156;28;20476;-70
2021/12/07 14:58:33;;;;;;;26.20;9.90;;;;;;;;;;5062248;28;20438;-71
2021/12/07 15:00:59;;;;;;;18.98;9.65;;;;;;;;;;5073246;28;20558;-71
2021/12/07 15:03:35;;;;;;;23.38;11.27;;;;;;;;;;5073350;28;20044;-72
2021/12/07 15:06:02;;;;;;;22.10;9.68;;;;;;;;;;5071666;28;20048;-71
2021/12/07 15:08:28;;;;;;;24.15;10.45;;;;;;;;;;5060577;28;20045;-71
2021/12/07 15:10:55;;;;;;;22.00;9.48;;;;;;;;;;5072061;28;20067;-71
2021/12/07 15:13:22;;;;;;;20.38;9.85;;;;;;;;;;5069114;28;20044;-71
2021/12/07 15:15:48;;;;;;;22.50;9.27;;;;;;;;;;5067433;28;20498;-72
2021/12/07 15:18:14;;;;;;;27.30;12.35;;;;;;;;;;5070729;28;20113;-72
2021/12/07 15:20:40;;;;;;;22.50;10.18;;;;;;;;;;5067520;28;20051;-71
2021/12/07 15:23:06;;;;;;;24.65;11.13;;;;;;;;;;5066228;28;20029;-72
2021/12/07 15:25:32;;;;;;;22.05;11.25;;;;;;;;;;5064002;28;20037;-72
2021/12/07 15:28:00;;;;;;;22.55;10.70;;;;;;;;;;5072770;28;20043;-71
2021/12/07 15:30:26;;;;;;;26.70;10.98;;;;;;;;;;5071265;28;20047;-72
2021/12/07 15:32:52;;;;;;;25.17;10.45;;;;;;;;;;5072084;28;20052;-71
2021/12/07 15:35:26;;;;;;;23.15;9.38;;;;;;;;;;5073272;28;20106;-70
2021/12/07 15:37:52;;;;;;;21.52;9.77;;;;;;;;;;5069625;28;20063;-71
2021/12/07 15:40:20;;;;;;;22.13;9.80;;;;;;;;;;5071832;28;20036;-71
2021/12/07 15:42:46;;;;;;;23.73;10.40;;;;;;;;;;5069932;28;20086;-71
2021/12/07 15:45:13;;;;;;;24.83;11.20;;;;;;;;;;5069430;28;20044;-71
2021/12/07 15:47:40;;;;;;;22.60;10.40;;;;;;;;;;5067914;28;20052;-71
2021/12/07 15:50:14;;;;;;;32.88;11.52;;;;;;;;;;5069173;28;20041;-70
2021/12/07 15:52:42;;;;;;;23.90;11.40;;;;;;;;;;5065235;28;20036;-70
2021/12/07 15:55:25;;;;;;;25.58;10.57;;;;;;;;;;5063099;28;20045;-71
2021/12/07 15:58:03;;;;;;;24.83;11.80;;;;;;;;;;5068795;28;20082;-71
2021/12/07 16:00:31;;;;;;;28.48;12.18;;;;;;;;;;5065685;28;20406;-71
2021/12/07 16:03:02;;;;;;;25.00;11.98;;;;;;;;;;5060828;28;20469;-71
2021/12/07 16:05:34;;;;;;;26.85;12.13;;;;;;;;;;5065047;28;20055;-71
2021/12/07 16:08:00;;;;;;;;;;;;;;;;;;5066436;28;20043;-71
2021/12/07 16:10:26;;;;;;;27.08;12.07;;;;;;;;;;5071624;28;20003;-71